sensor_id;sensor_type;location;lat;lon;timestamp;pressure;altitude;pressure_sealevel;temperature;humidity
8543;BME280;4309;42.658;23.380;2023-02-12T00:00:10;95713.63;;;1.57;46.21
8543;BME280;4309;42.658;23.380;2023-02-12T00:00:43;95702.63;;;1.65;46.83
8543;BME280;4309;42.658;23.380;2023-02-12T00:01:17;95709.00;;;1.71;46.93
8543;BME280;4309;42.658;23.380;2023-02-12T00:01:50;95696.81;;;1.63;46.37
8543;BME280;4309;42.658;23.380;2023-02-12T00:02:22;95695.56;;;1.67;46.16
8543;BME280;4309;42.658;23.380;2023-02-12T00:02:54;95697.22;;;1.68;46.64
8543;BME280;4309;42.658;23.380;2023-02-12T00:03:26;95700.44;;;1.70;46.23
8543;BME280;4309;42.658;23.380;2023-02-12T00:03:59;95708.84;;;1.72;46.14
8543;BME280;4309;42.658;23.380;2023-02-12T00:04:31;95698.53;;;1.72;46.76
8543;BME280;4309;42.658;23.380;2023-02-12T00:05:04;95703.47;;;1.56;46.82
8543;BME280;4309;42.658;23.380;2023-02-12T00:05:36;95691.16;;;1.50;47.00
8543;BME280;4309;42.658;23.380;2023-02-12T00:06:09;95698.19;;;1.48;46.69
8543;BME280;4309;42.658;23.380;2023-02-12T00:06:41;95706.34;;;1.43;46.89
8543;BME280;4309;42.658;23.380;2023-02-12T00:07:13;95708.78;;;1.45;47.98
8543;BME280;4309;42.658;23.380;2023-02-12T00:07:46;95700.78;;;1.48;47.11
8543;BME280;4309;42.658;23.380;2023-02-12T00:08:18;95700.09;;;1.55;48.01
8543;BME280;4309;42.658;23.380;2023-02-12T00:08:52;95695.06;;;1.54;46.79
8543;BME280;4309;42.658;23.380;2023-02-12T00:09:25;95705.25;;;1.55;46.63
8543;BME280;4309;42.658;23.380;2023-02-12T00:09:57;95703.22;;;1.49;47.08
8543;BME280;4309;42.658;23.380;2023-02-12T00:10:29;95706.75;;;1.48;47.47
8543;BME280;4309;42.658;23.380;2023-02-12T00:11:07;95702.94;;;1.52;47.07
8543;BME280;4309;42.658;23.380;2023-02-12T00:11:39;95701.28;;;1.61;47.40
8543;BME280;4309;42.658;23.380;2023-02-12T00:12:10;95699.25;;;1.65;46.91
8543;BME280;4309;42.658;23.380;2023-02-12T00:12:46;95697.47;;;1.65;46.40
8543;BME280;4309;42.658;23.380;2023-02-12T00:13:17;95706.84;;;1.66;47.46
8543;BME280;4309;42.658;23.380;2023-02-12T00:13:55;95708.72;;;1.64;46.77
8543;BME280;4309;42.658;23.380;2023-02-12T00:14:28;95713.75;;;1.66;47.61
8543;BME280;4309;42.658;23.380;2023-02-12T00:15:00;95711.16;;;1.66;46.89
8543;BME280;4309;42.658;23.380;2023-02-12T00:15:31;95709.13;;;1.69;47.35
8543;BME280;4309;42.658;23.380;2023-02-12T00:16:06;95708.31;;;1.69;47.63
8543;BME280;4309;42.658;23.380;2023-02-12T00:16:38;95704.78;;;1.70;47.89
8543;BME280;4309;42.658;23.380;2023-02-12T00:17:10;95711.28;;;1.74;47.81
8543;BME280;4309;42.658;23.380;2023-02-12T00:17:42;95709.00;;;1.71;47.74
8543;BME280;4309;42.658;23.380;2023-02-12T00:18:15;95702.47;;;1.67;46.98
8543;BME280;4309;42.658;23.380;2023-02-12T00:18:50;95708.88;;;1.63;47.19
8543;BME280;4309;42.658;23.380;2023-02-12T00:19:22;95711.44;;;1.63;47.08
8543;BME280;4309;42.658;23.380;2023-02-12T00:19:55;95713.06;;;1.63;47.58
8543;BME280;4309;42.658;23.380;2023-02-12T00:20:27;95704.41;;;1.65;47.16
8543;BME280;4309;42.658;23.380;2023-02-12T00:21:00;95709.56;;;1.65;46.84
8543;BME280;4309;42.658;23.380;2023-02-12T00:21:39;95711.75;;;1.59;47.11
8543;BME280;4309;42.658;23.380;2023-02-12T00:22:11;95712.28;;;1.63;47.17
8543;BME280;4309;42.658;23.380;2023-02-12T00:22:42;95709.16;;;1.59;47.33
8543;BME280;4309;42.658;23.380;2023-02-12T00:23:14;95706.44;;;1.61;47.77
8543;BME280;4309;42.658;23.380;2023-02-12T00:23:49;95703.59;;;1.54;47.23
8543;BME280;4309;42.658;23.380;2023-02-12T00:24:21;95711.06;;;1.57;47.10
8543;BME280;4309;42.658;23.380;2023-02-12T00:24:54;95703.72;;;1.63;46.63
8543;BME280;4309;42.658;23.380;2023-02-12T00:25:25;95699.13;;;1.56;47.69
8543;BME280;4309;42.658;23.380;2023-02-12T00:25:57;95708.63;;;1.56;47.55
8543;BME280;4309;42.658;23.380;2023-02-12T00:26:29;95711.06;;;1.57;47.78
8543;BME280;4309;42.658;23.380;2023-02-12T00:27:02;95708.75;;;1.54;46.92
8543;BME280;4309;42.658;23.380;2023-02-12T00:27:34;95702.53;;;1.57;46.58
8543;BME280;4309;42.658;23.380;2023-02-12T00:28:06;95709.31;;;1.58;46.86
8543;BME280;4309;42.658;23.380;2023-02-12T00:28:38;95705.34;;;1.63;48.00
8543;BME280;4309;42.658;23.380;2023-02-12T00:29:13;95705.63;;;1.60;46.95
8543;BME280;4309;42.658;23.380;2023-02-12T00:29:45;95704.81;;;1.60;46.72
8543;BME280;4309;42.658;23.380;2023-02-12T00:30:17;95706.59;;;1.59;46.95
8543;BME280;4309;42.658;23.380;2023-02-12T00:30:50;95702.63;;;1.65;47.96
8543;BME280;4309;42.658;23.380;2023-02-12T00:31:23;95710.09;;;1.68;47.48
8543;BME280;4309;42.658;23.380;2023-02-12T00:31:55;95702.38;;;1.68;46.92
8543;BME280;4309;42.658;23.380;2023-02-12T00:32:27;95709.66;;;1.73;46.97
8543;BME280;4309;42.658;23.380;2023-02-12T00:32:58;95703.69;;;1.72;47.61
8543;BME280;4309;42.658;23.380;2023-02-12T00:33:30;95709.00;;;1.71;47.19
8543;BME280;4309;42.658;23.380;2023-02-12T00:34:03;95714.81;;;1.73;47.63
8543;BME280;4309;42.658;23.380;2023-02-12T00:34:36;95708.44;;;1.67;46.99
8543;BME280;4309;42.658;23.380;2023-02-12T00:35:08;95709.00;;;1.71;47.58
8543;BME280;4309;42.658;23.380;2023-02-12T00:35:41;95703.28;;;1.67;47.42
8543;BME280;4309;42.658;23.380;2023-02-12T00:36:20;95704.69;;;1.62;46.48
8543;BME280;4309;42.658;23.380;2023-02-12T00:36:50;95710.09;;;1.68;46.96
8543;BME280;4309;42.658;23.380;2023-02-12T00:37:24;95698.00;;;1.69;48.00
8543;BME280;4309;42.658;23.380;2023-02-12T00:37:56;95695.56;;;1.67;47.74
8543;BME280;4309;42.658;23.380;2023-02-12T00:38:28;95698.13;;;1.67;47.56
8543;BME280;4309;42.658;23.380;2023-02-12T00:39:02;95701.94;;;1.73;47.59
8543;BME280;4309;42.658;23.380;2023-02-12T00:39:34;95697.47;;;1.65;47.72
8543;BME280;4309;42.658;23.380;2023-02-12T00:40:09;95698.97;;;1.68;47.57
8543;BME280;4309;42.658;23.380;2023-02-12T00:40:42;95696.25;;;1.69;47.21
8543;BME280;4309;42.658;23.380;2023-02-12T00:41:14;95702.47;;;1.67;47.26
8543;BME280;4309;42.658;23.380;2023-02-12T00:41:46;95698.97;;;1.68;46.59
8543;BME280;4309;42.658;23.380;2023-02-12T00:42:19;95689.59;;;1.67;47.10
8543;BME280;4309;42.658;23.380;2023-02-12T00:42:51;95688.94;;;1.65;46.42
8543;BME280;4309;42.658;23.380;2023-02-12T00:43:23;95692.97;;;1.67;46.54
8543;BME280;4309;42.658;23.380;2023-02-12T00:43:56;95671.69;;;1.65;47.59
8543;BME280;4309;42.658;23.380;2023-02-12T00:44:33;95688.97;;;1.55;46.75
8543;BME280;4309;42.658;23.380;2023-02-12T00:45:06;95684.22;;;1.60;46.73
8543;BME280;4309;42.658;23.380;2023-02-12T00:45:39;95693.28;;;1.64;47.66
8543;BME280;4309;42.658;23.380;2023-02-12T00:46:11;95692.97;;;1.67;47.87
8543;BME280;4309;42.658;23.380;2023-02-12T00:46:43;95688.25;;;1.63;47.93
8543;BME280;4309;42.658;23.380;2023-02-12T00:47:16;95692.47;;;1.54;47.24
8543;BME280;4309;42.658;23.380;2023-02-12T00:47:48;95695.34;;;1.51;47.06
8543;BME280;4309;42.658;23.380;2023-02-12T00:48:19;95685.16;;;1.49;47.70
8543;BME280;4309;42.658;23.380;2023-02-12T00:48:51;95687.59;;;1.51;46.90
8543;BME280;4309;42.658;23.380;2023-02-12T00:49:24;95687.06;;;1.57;47.42
8543;BME280;4309;42.658;23.380;2023-02-12T00:49:56;95685.00;;;1.60;47.64
8543;BME280;4309;42.658;23.380;2023-02-12T00:50:28;95680.13;;;1.57;47.55
8543;BME280;4309;42.658;23.380;2023-02-12T00:51:04;95680.28;;;1.56;46.83
8543;BME280;4309;42.658;23.380;2023-02-12T00:51:36;95688.44;;;1.51;47.91
8543;BME280;4309;42.658;23.380;2023-02-12T00:52:08;95682.06;;;1.55;47.21
8543;BME280;4309;42.658;23.380;2023-02-12T00:52:41;95683.81;;;1.55;47.27
8543;BME280;4309;42.658;23.380;2023-02-12T00:53:13;95690.03;;;1.52;47.95
8543;BME280;4309;42.658;23.380;2023-02-12T00:53:45;95682.16;;;1.54;46.90
8543;BME280;4309;42.658;23.380;2023-02-12T00:54:17;95680.69;;;1.51;47.58
8543;BME280;4309;42.658;23.380;2023-02-12T00:54:50;95678.50;;;1.56;47.83
8543;BME280;4309;42.658;23.380;2023-02-12T00:55:22;95682.31;;;1.52;47.18
8543;BME280;4309;42.658;23.380;2023-02-12T00:55:54;95679.19;;;1.58;48.06
8543;BME280;4309;42.658;23.380;2023-02-12T00:56:29;95672.53;;;1.56;47.42
8543;BME280;4309;42.658;23.380;2023-02-12T00:57:01;95676.09;;;1.55;48.13
8543;BME280;4309;42.658;23.380;2023-02-12T00:57:33;95670.78;;;1.56;47.66
8543;BME280;4309;42.658;23.380;2023-02-12T00:58:07;95668.63;;;1.52;48.36
8543;BME280;4309;42.658;23.380;2023-02-12T00:58:39;95674.72;;;1.51;47.10
8543;BME280;4309;42.658;23.380;2023-02-12T00:59:09;95666.06;;;1.52;46.96
8543;BME280;4309;42.658;23.380;2023-02-12T00:59:46;95669.97;;;1.56;47.56
8543;BME280;4309;42.658;23.380;2023-02-12T01:00:18;95671.31;;;1.60;47.79
8543;BME280;4309;42.658;23.380;2023-02-12T01:00:49;95665.91;;;1.53;47.45
8543;BME280;4309;42.658;23.380;2023-02-12T01:01:25;95665.50;;;1.58;48.00
8543;BME280;4309;42.658;23.380;2023-02-12T01:01:57;95668.22;;;1.56;48.36
8543;BME280;4309;42.658;23.380;2023-02-12T01:02:29;95660.91;;;1.52;47.76
8543;BME280;4309;42.658;23.380;2023-02-12T01:03:02;95665.53;;;1.48;47.85
8543;BME280;4309;42.658;23.380;2023-02-12T01:03:39;95663.78;;;1.49;47.98
8543;BME280;4309;42.658;23.380;2023-02-12T01:04:11;95660.25;;;1.40;47.40
8543;BME280;4309;42.658;23.380;2023-02-12T01:04:44;95664.06;;;1.46;47.54
8543;BME280;4309;42.658;23.380;2023-02-12T01:05:17;95655.91;;;1.41;48.71
8543;BME280;4309;42.658;23.380;2023-02-12T01:05:50;95663.47;;;1.52;48.14
8543;BME280;4309;42.658;23.380;2023-02-12T01:06:22;95665.53;;;1.48;47.35
8543;BME280;4309;42.658;23.380;2023-02-12T01:06:56;95661.97;;;1.49;47.89
8543;BME280;4309;42.658;23.380;2023-02-12T01:07:27;95659.81;;;1.54;47.15
8543;BME280;4309;42.658;23.380;2023-02-12T01:08:00;95669.19;;;1.55;46.80
8543;BME280;4309;42.658;23.380;2023-02-12T01:08:35;95656.53;;;1.52;47.51
8543;BME280;4309;42.658;23.380;2023-02-12T01:09:07;95656.81;;;1.49;47.57
8543;BME280;4309;42.658;23.380;2023-02-12T01:09:39;95657.50;;;1.51;46.79
8543;BME280;4309;42.658;23.380;2023-02-12T01:10:11;95659.50;;;1.57;47.66
8543;BME280;4309;42.658;23.380;2023-02-12T01:10:43;95660.88;;;1.62;47.25
8543;BME280;4309;42.658;23.380;2023-02-12T01:11:16;95664.03;;;1.55;46.97
8543;BME280;4309;42.658;23.380;2023-02-12T01:11:47;95664.13;;;1.54;47.51
8543;BME280;4309;42.658;23.380;2023-02-12T01:12:18;95661.44;;;1.55;47.15
8543;BME280;4309;42.658;23.380;2023-02-12T01:12:51;95653.97;;;1.52;46.64
8543;BME280;4309;42.658;23.380;2023-02-12T01:13:24;95658.03;;;1.55;47.00
8543;BME280;4309;42.658;23.380;2023-02-12T01:13:56;95662.91;;;1.58;46.89
8543;BME280;4309;42.658;23.380;2023-02-12T01:14:30;95666.03;;;1.62;47.17
8543;BME280;4309;42.658;23.380;2023-02-12T01:15:03;95668.97;;;1.67;47.62
8543;BME280;4309;42.658;23.380;2023-02-12T01:15:35;95665.47;;;1.68;46.71
8543;BME280;4309;42.658;23.380;2023-02-12T01:16:12;95666.28;;;1.68;46.54
8543;BME280;4309;42.658;23.380;2023-02-12T01:16:45;95664.50;;;1.69;46.91
8543;BME280;4309;42.658;23.380;2023-02-12T01:17:18;95668.19;;;1.66;47.39
8543;BME280;4309;42.658;23.380;2023-02-12T01:17:50;95676.59;;;1.68;46.61
8543;BME280;4309;42.658;23.380;2023-02-12T01:18:22;95666.28;;;1.68;47.09
8543;BME280;4309;42.658;23.380;2023-02-12T01:18:55;95657.44;;;1.71;48.04
8543;BME280;4309;42.658;23.380;2023-02-12T01:19:28;95669.22;;;1.73;47.50
8543;BME280;4309;42.658;23.380;2023-02-12T01:20:00;95670.44;;;1.79;47.01
8543;BME280;4309;42.658;23.380;2023-02-12T01:20:32;95671.38;;;1.78;47.16
8543;BME280;4309;42.658;23.380;2023-02-12T01:21:10;95671.38;;;1.78;46.61
8543;BME280;4309;42.658;23.380;2023-02-12T01:21:42;95672.03;;;1.80;47.38
8543;BME280;4309;42.658;23.380;2023-02-12T01:22:15;95670.56;;;1.77;47.37
8543;BME280;4309;42.658;23.380;2023-02-12T01:22:47;95670.16;;;1.82;47.36
8543;BME280;4309;42.658;23.380;2023-02-12T01:23:19;95678.56;;;1.84;46.14
8543;BME280;4309;42.658;23.380;2023-02-12T01:23:51;95676.63;;;1.86;46.43
8543;BME280;4309;42.658;23.380;2023-02-12T01:24:25;95673.25;;;1.85;46.50
8543;BME280;4309;42.658;23.380;2023-02-12T01:24:56;95674.59;;;1.89;47.46
8543;BME280;4309;42.658;23.380;2023-02-12T01:25:28;95680.13;;;1.94;46.82
8543;BME280;4309;42.658;23.380;2023-02-12T01:26:00;95674.28;;;1.92;46.26
8543;BME280;4309;42.658;23.380;2023-02-12T01:26:38;95668.47;;;1.90;46.71
8543;BME280;4309;42.658;23.380;2023-02-12T01:27:08;95678.78;;;1.90;47.28
8543;BME280;4309;42.658;23.380;2023-02-12T01:27:40;95673.13;;;1.87;46.30
8543;BME280;4309;42.658;23.380;2023-02-12T01:28:13;95678.28;;;1.87;46.86
8543;BME280;4309;42.658;23.380;2023-02-12T01:28:49;95682.59;;;1.86;47.10
8543;BME280;4309;42.658;23.380;2023-02-12T01:29:21;95678.56;;;1.84;47.04
8543;BME280;4309;42.658;23.380;2023-02-12T01:29:55;95680.03;;;1.86;46.81
8543;BME280;4309;42.658;23.380;2023-02-12T01:30:28;95672.81;;;1.90;47.40
8543;BME280;4309;42.658;23.380;2023-02-12T01:31:01;95675.59;;;1.79;46.45
8543;BME280;4309;42.658;23.380;2023-02-12T01:31:36;95678.16;;;1.79;47.71
8543;BME280;4309;42.658;23.380;2023-02-12T01:32:08;95679.38;;;1.75;47.15
8543;BME280;4309;42.658;23.380;2023-02-12T01:32:40;95677.91;;;1.72;47.59
8543;BME280;4309;42.658;23.380;2023-02-12T01:33:13;95679.38;;;1.75;47.39
8543;BME280;4309;42.658;23.380;2023-02-12T01:33:46;95677.19;;;1.80;47.28
8543;BME280;4309;42.658;23.380;2023-02-12T01:34:19;95684.00;;;1.81;47.67
8543;BME280;4309;42.658;23.380;2023-02-12T01:34:52;95675.41;;;1.90;47.10
8543;BME280;4309;42.658;23.380;2023-02-12T01:35:24;95677.84;;;1.91;47.39
8543;BME280;4309;42.658;23.380;2023-02-12T01:35:56;95679.75;;;1.89;46.92
8543;BME280;4309;42.658;23.380;2023-02-12T01:36:29;95672.25;;;1.96;47.98
8543;BME280;4309;42.658;23.380;2023-02-12T01:37:02;95669.81;;;1.94;47.44
8543;BME280;4309;42.658;23.380;2023-02-12T01:37:34;95668.34;;;1.92;47.67
8543;BME280;4309;42.658;23.380;2023-02-12T01:38:08;95670.63;;;1.95;47.34
8543;BME280;4309;42.658;23.380;2023-02-12T01:38:40;95661.53;;;1.91;46.78
8543;BME280;4309;42.658;23.380;2023-02-12T01:39:13;95672.25;;;1.96;46.54
8543;BME280;4309;42.658;23.380;2023-02-12T01:39:46;95671.28;;;1.97;46.76
8543;BME280;4309;42.658;23.380;2023-02-12T01:40:18;95663.03;;;1.93;46.78
8543;BME280;4309;42.658;23.380;2023-02-12T01:40:50;95665.19;;;1.98;48.07
8543;BME280;4309;42.658;23.380;2023-02-12T01:41:25;95661.25;;;1.94;47.58
8543;BME280;4309;42.658;23.380;2023-02-12T01:41:57;95661.94;;;1.96;48.35
8543;BME280;4309;42.658;23.380;2023-02-12T01:42:29;95663.31;;;1.90;47.31
8543;BME280;4309;42.658;23.380;2023-02-12T01:43:03;95658.69;;;1.94;48.23
8543;BME280;4309;42.658;23.380;2023-02-12T01:43:35;95663.84;;;1.94;47.75
8543;BME280;4309;42.658;23.380;2023-02-12T01:44:14;95655.31;;;1.93;47.89
8543;BME280;4309;42.658;23.380;2023-02-12T01:46:01;95660.91;;;1.79;47.54
8543;BME280;4309;42.658;23.380;2023-02-12T01:46:36;95654.28;;;1.77;46.88
8543;BME280;4309;42.658;23.380;2023-02-12T01:47:16;95665.56;;;1.76;47.89
8543;BME280;4309;42.658;23.380;2023-02-12T01:47:48;95656.97;;;1.85;46.95
8543;BME280;4309;42.658;23.380;2023-02-12T01:48:22;95648.13;;;1.87;47.44
8543;BME280;4309;42.658;23.380;2023-02-12T01:48:56;95652.50;;;1.87;47.81
8543;BME280;4309;42.658;23.380;2023-02-12T01:49:32;95656.53;;;1.89;46.96
8543;BME280;4309;42.658;23.380;2023-02-12T01:50:06;95656.69;;;1.88;46.88
8543;BME280;4309;42.658;23.380;2023-02-12T01:50:40;95656.00;;;1.86;46.86
8543;BME280;4309;42.658;23.380;2023-02-12T01:51:16;95648.13;;;1.87;47.08
8543;BME280;4309;42.658;23.380;2023-02-12T01:51:54;95647.75;;;1.82;46.96
8543;BME280;4309;42.658;23.380;2023-02-12T01:52:31;95651.09;;;1.92;47.45
8543;BME280;4309;42.658;23.380;2023-02-12T01:53:04;95650.06;;;1.85;48.35
8543;BME280;4309;42.658;23.380;2023-02-12T01:53:41;95645.19;;;1.82;46.94
8543;BME280;4309;42.658;23.380;2023-02-12T01:54:16;95634.94;;;1.90;46.54
8543;BME280;4309;42.658;23.380;2023-02-12T01:54:51;95638.06;;;1.94;46.71
8543;BME280;4309;42.658;23.380;2023-02-12T01:55:26;95635.09;;;1.89;47.67
8543;BME280;4309;42.658;23.380;2023-02-12T01:55:59;95637.94;;;1.86;47.60
8543;BME280;4309;42.658;23.380;2023-02-12T01:56:33;95639.75;;;1.85;46.87
8543;BME280;4309;42.658;23.380;2023-02-12T01:57:11;95635.38;;;1.86;47.49
8543;BME280;4309;42.658;23.380;2023-02-12T01:57:45;95634.72;;;1.84;48.39
8543;BME280;4309;42.658;23.380;2023-02-12T01:58:19;95621.44;;;1.79;48.98
8543;BME280;4309;42.658;23.380;2023-02-12T01:58:52;95637.59;;;1.81;48.19
8543;BME280;4309;42.658;23.380;2023-02-12T01:59:26;95632.44;;;1.81;47.87
8543;BME280;4309;42.658;23.380;2023-02-12T02:00:01;95626.31;;;1.82;48.08
8543;BME280;4309;42.658;23.380;2023-02-12T02:00:35;95626.69;;;1.87;48.56
8543;BME280;4309;42.658;23.380;2023-02-12T02:01:12;95627.63;;;1.86;47.54
8543;BME280;4309;42.658;23.380;2023-02-12T02:01:46;95625.59;;;1.89;47.57
8543;BME280;4309;42.658;23.380;2023-02-12T02:02:18;95630.31;;;1.94;47.72
8543;BME280;4309;42.658;23.380;2023-02-12T02:02:53;95622.03;;;1.90;48.01
8543;BME280;4309;42.658;23.380;2023-02-12T02:03:27;95634.00;;;1.91;47.83
8543;BME280;4309;42.658;23.380;2023-02-12T02:04:01;95625.59;;;1.89;48.76
8543;BME280;4309;42.658;23.380;2023-02-12T02:04:37;95641.06;;;1.89;48.39
8543;BME280;4309;42.658;23.380;2023-02-12T02:05:14;95628.03;;;1.91;48.57
8543;BME280;4309;42.658;23.380;2023-02-12T02:05:54;95636.72;;;1.90;48.07
8543;BME280;4309;42.658;23.380;2023-02-12T02:06:30;95634.16;;;1.90;48.18
8543;BME280;4309;42.658;23.380;2023-02-12T02:07:06;95630.38;;;1.84;47.89
8543;BME280;4309;42.658;23.380;2023-02-12T02:07:39;95636.59;;;1.91;47.51
8543;BME280;4309;42.658;23.380;2023-02-12T02:08:12;95634.81;;;1.92;48.13
8543;BME280;4309;42.658;23.380;2023-02-12T02:08:45;95627.88;;;1.92;47.73
8543;BME280;4309;42.658;23.380;2023-02-12T02:09:19;95632.78;;;1.86;47.24
8543;BME280;4309;42.658;23.380;2023-02-12T02:09:51;95637.44;;;1.82;47.52
8543;BME280;4309;42.658;23.380;2023-02-12T02:10:23;95631.84;;;1.87;48.09
8543;BME280;4309;42.658;23.380;2023-02-12T02:10:56;95620.72;;;1.86;48.20
8543;BME280;4309;42.658;23.380;2023-02-12T02:11:28;95642.59;;;1.82;48.22
8543;BME280;4309;42.658;23.380;2023-02-12T02:12:18;95637.50;;;1.73;48.16
8543;BME280;4309;42.658;23.380;2023-02-12T02:13:09;95646.00;;;1.73;47.50
8543;BME280;4309;42.658;23.380;2023-02-12T02:13:59;95647.50;;;1.76;48.12
8543;BME280;4309;42.658;23.380;2023-02-12T02:14:54;95642.66;;;1.73;48.61
8543;BME280;4309;42.658;23.380;2023-02-12T02:15:29;95654.72;;;1.72;49.14
8543;BME280;4309;42.658;23.380;2023-02-12T02:16:08;95648.25;;;1.68;48.47
8543;BME280;4309;42.658;23.380;2023-02-12T02:16:56;95649.47;;;1.64;48.56
8543;BME280;4309;42.658;23.380;2023-02-12T02:17:46;95650.31;;;1.55;48.45
8543;BME280;4309;42.658;23.380;2023-02-12T02:18:43;95646.19;;;1.62;49.70
8543;BME280;4309;42.658;23.380;2023-02-12T02:19:27;95646.50;;;1.59;49.69
8543;BME280;4309;42.658;23.380;2023-02-12T02:20:35;95650.16;;;1.56;49.48
8543;BME280;4309;42.658;23.380;2023-02-12T02:21:48;95645.44;;;1.52;49.41
8543;BME280;4309;42.658;23.380;2023-02-12T02:22:29;95646.91;;;1.54;50.05
8543;BME280;4309;42.658;23.380;2023-02-12T02:23:15;95648.16;;;1.50;49.86
8543;BME280;4309;42.658;23.380;2023-02-12T02:24:16;95650.78;;;1.41;50.61
8543;BME280;4309;42.658;23.380;2023-02-12T02:25:14;95644.38;;;1.45;50.69
8543;BME280;4309;42.658;23.380;2023-02-12T02:26:07;95638.03;;;1.39;51.00
8543;BME280;4309;42.658;23.380;2023-02-12T02:27:07;95635.63;;;1.28;50.05
8543;BME280;4309;42.658;23.380;2023-02-12T02:27:54;95628.53;;;1.30;50.86
8543;BME280;4309;42.658;23.380;2023-02-12T02:28:55;95641.19;;;1.24;51.09
8543;BME280;4309;42.658;23.380;2023-02-12T02:29:54;95638.47;;;1.25;51.01
8543;BME280;4309;42.658;23.380;2023-02-12T02:30:37;95636.59;;;1.18;50.39
8543;BME280;4309;42.658;23.380;2023-02-12T02:31:17;95633.88;;;1.19;50.77
8543;BME280;4309;42.658;23.380;2023-02-12T02:31:55;95635.38;;;1.22;50.71
8543;BME280;4309;42.658;23.380;2023-02-12T02:32:33;95633.63;;;1.22;50.11
8543;BME280;4309;42.658;23.380;2023-02-12T02:33:23;95634.25;;;1.24;50.92
8543;BME280;4309;42.658;23.380;2023-02-12T02:34:02;95631.69;;;1.24;51.11
8543;BME280;4309;42.658;23.380;2023-02-12T02:34:39;95639.97;;;1.18;50.05
8543;BME280;4309;42.658;23.380;2023-02-12T02:35:20;95635.78;;;1.17;50.64
8543;BME280;4309;42.658;23.380;2023-02-12T02:36:03;95635.38;;;1.22;50.98
8543;BME280;4309;42.658;23.380;2023-02-12T02:36:42;95637.41;;;1.18;51.03
8543;BME280;4309;42.658;23.380;2023-02-12T02:37:17;95633.63;;;1.22;51.08
8543;BME280;4309;42.658;23.380;2023-02-12T02:37:58;95637.41;;;1.18;49.94
8543;BME280;4309;42.658;23.380;2023-02-12T02:38:38;95630.63;;;1.17;50.14
8543;BME280;4309;42.658;23.380;2023-02-12T02:39:16;95639.44;;;1.15;50.75
8543;BME280;4309;42.658;23.380;2023-02-12T02:39:54;95635.25;;;1.14;50.41
8543;BME280;4309;42.658;23.380;2023-02-12T02:40:31;95633.50;;;1.14;50.66
8543;BME280;4309;42.658;23.380;2023-02-12T02:41:09;95635.38;;;1.12;50.16
8543;BME280;4309;42.658;23.380;2023-02-12T02:41:47;95628.09;;;1.08;50.37
8543;BME280;4309;42.658;23.380;2023-02-12T02:42:25;95623.63;;;1.10;50.86
8543;BME280;4309;42.658;23.380;2023-02-12T02:43:05;95631.56;;;1.16;50.77
8543;BME280;4309;42.658;23.380;2023-02-12T02:43:42;95632.53;;;1.15;49.88
8543;BME280;4309;42.658;23.380;2023-02-12T02:44:19;95630.50;;;1.19;50.61
8543;BME280;4309;42.658;23.380;2023-02-12T02:44:58;95631.81;;;1.23;49.73
8543;BME280;4309;42.658;23.380;2023-02-12T02:45:35;95635.78;;;1.27;49.76
8543;BME280;4309;42.658;23.380;2023-02-12T02:46:13;95623.41;;;1.30;50.29
8543;BME280;4309;42.658;23.380;2023-02-12T02:46:49;95636.06;;;1.24;50.23
8543;BME280;4309;42.658;23.380;2023-02-12T02:47:25;95636.44;;;1.19;50.78
8543;BME280;4309;42.658;23.380;2023-02-12T02:48:02;95642.81;;;1.25;51.36
8543;BME280;4309;42.658;23.380;2023-02-12T02:48:41;95643.91;;;1.22;50.60
8543;BME280;4309;42.658;23.380;2023-02-12T02:49:20;95649.06;;;1.22;50.43
8543;BME280;4309;42.658;23.380;2023-02-12T02:49:56;95642.97;;;1.14;51.34
8543;BME280;4309;42.658;23.380;2023-02-12T02:50:34;95653.53;;;1.20;50.89
8543;BME280;4309;42.658;23.380;2023-02-12T02:51:11;95650.28;;;1.18;51.06
8543;BME280;4309;42.658;23.380;2023-02-12T02:51:50;95644.72;;;1.13;51.52
8543;BME280;4309;42.658;23.380;2023-02-12T02:53:25;95656.38;;;1.27;51.89
8543;BME280;4309;42.658;23.380;2023-02-12T02:54:04;95653.09;;;1.34;51.59
8543;BME280;4309;42.658;23.380;2023-02-12T02:54:42;95654.06;;;1.33;51.84
8543;BME280;4309;42.658;23.380;2023-02-12T02:55:17;95655.28;;;1.29;50.93
8543;BME280;4309;42.658;23.380;2023-02-12T02:55:53;95660.53;;;1.37;52.05
8543;BME280;4309;42.658;23.380;2023-02-12T02:56:29;95659.59;;;1.29;50.83
8543;BME280;4309;42.658;23.380;2023-02-12T02:57:06;95659.06;;;1.35;51.52
8543;BME280;4309;42.658;23.380;2023-02-12T02:57:41;95658.38;;;1.33;50.62
8543;BME280;4309;42.658;23.380;2023-02-12T02:58:19;95666.94;;;1.33;50.74
8543;BME280;4309;42.658;23.380;2023-02-12T02:58:56;95661.06;;;1.41;50.74
8543;BME280;4309;42.658;23.380;2023-02-12T02:59:34;95662.16;;;1.38;51.57
8543;BME280;4309;42.658;23.380;2023-02-12T03:00:13;95662.44;;;1.35;51.55
8543;BME280;4309;42.658;23.380;2023-02-12T03:00:49;95658.34;;;1.42;51.53
8543;BME280;4309;42.658;23.380;2023-02-12T03:01:26;95660.50;;;1.47;50.96
8543;BME280;4309;42.658;23.380;2023-02-12T03:02:05;95662.13;;;1.48;50.81
8543;BME280;4309;42.658;23.380;2023-02-12T03:02:42;95659.28;;;1.41;51.31
8543;BME280;4309;42.658;23.380;2023-02-12T03:03:19;95663.13;;;1.37;50.32
8543;BME280;4309;42.658;23.380;2023-02-12T03:04:00;95659.56;;;1.38;50.50
8543;BME280;4309;42.658;23.380;2023-02-12T03:04:35;95662.16;;;1.38;50.93
8543;BME280;4309;42.658;23.380;2023-02-12T03:05:14;95666.78;;;1.44;50.31
8543;BME280;4309;42.658;23.380;2023-02-12T03:05:51;95661.88;;;1.41;51.02
8543;BME280;4309;42.658;23.380;2023-02-12T03:06:29;95663.91;;;1.47;49.91
8543;BME280;4309;42.658;23.380;2023-02-12T03:07:07;95665.81;;;1.45;51.30
8543;BME280;4309;42.658;23.380;2023-02-12T03:07:44;95663.22;;;1.45;51.39
8543;BME280;4309;42.658;23.380;2023-02-12T03:08:21;95656.31;;;1.46;51.35
8543;BME280;4309;42.658;23.380;2023-02-12T03:08:58;95662.53;;;1.43;51.78
8543;BME280;4309;42.658;23.380;2023-02-12T03:09:37;95656.22;;;1.38;50.92
8543;BME280;4309;42.658;23.380;2023-02-12T03:10:15;95655.34;;;1.47;51.32
8543;BME280;4309;42.658;23.380;2023-02-12T03:10:53;95661.88;;;1.41;51.89
8543;BME280;4309;42.658;23.380;2023-02-12T03:11:28;95653.75;;;1.46;51.26
8543;BME280;4309;42.658;23.380;2023-02-12T03:12:04;95649.09;;;1.49;50.70
8543;BME280;4309;42.658;23.380;2023-02-12T03:12:42;95656.41;;;1.54;50.51
8543;BME280;4309;42.658;23.380;2023-02-12T03:13:22;95655.22;;;1.48;51.70
8543;BME280;4309;42.658;23.380;2023-02-12T03:13:58;95655.22;;;1.48;50.85
8543;BME280;4309;42.658;23.380;2023-02-12T03:14:35;95653.47;;;1.49;51.31
8543;BME280;4309;42.658;23.380;2023-02-12T03:15:13;95656.53;;;1.52;50.66